createdAt,value
2019-06-08T08:44:17.696Z,95576.98
2019-06-08T08:46:43.437Z,95574.73
2019-06-08T08:49:12.971Z,95574.20
2019-06-08T08:51:37.654Z,95571.13
2019-06-08T08:54:04.793Z,95576.06
2019-06-08T08:56:28.034Z,95570.09
2019-06-08T08:58:54.417Z,95565.88
2019-06-08T09:01:20.542Z,95565.67
2019-06-08T09:03:48.286Z,95565.80
2019-06-08T09:06:11.523Z,95561.58
2019-06-08T09:08:37.752Z,95561.46
2019-06-08T09:11:03.949Z,95567.95
2019-06-08T09:13:29.588Z,95561.77
2019-06-08T09:15:55.839Z,95562.11
2019-06-08T09:18:21.619Z,95559.42
2019-06-08T09:20:47.968Z,95553.66
2019-06-08T09:23:16.498Z,95549.77
2019-06-08T09:25:40.680Z,95565.20
2019-06-08T09:28:08.286Z,95551.32
2019-06-08T09:30:31.711Z,95564.87
2019-06-08T09:33:00.586Z,95559.44
2019-06-08T09:35:24.408Z,95564.37
2019-06-08T09:37:50.428Z,95568.39
2019-06-08T09:40:16.492Z,95559.23
2019-06-08T09:42:42.501Z,95556.67
2019-06-08T09:45:08.944Z,95562.11
2019-06-08T09:47:34.534Z,95562.73
2019-06-08T09:50:03.369Z,95558.01
2019-06-08T09:52:28.135Z,95556.55
2019-06-08T09:54:54.109Z,95555.22
2019-06-08T09:57:19.031Z,95551.83
2019-06-08T09:59:44.629Z,95558.52
2019-06-08T10:02:12.903Z,95559.43
2019-06-08T10:04:38.676Z,95557.80
2019-06-08T10:07:03.905Z,95557.30
2019-06-08T10:09:28.653Z,95556.87
2019-06-08T10:11:54.670Z,95546.77
2019-06-08T10:14:20.696Z,95554.80
2019-06-08T10:16:47.795Z,95555.72
2019-06-08T10:19:12.709Z,95548.20
2019-06-08T10:21:42.744Z,95553.55
2019-06-08T10:24:07.028Z,95540.29
2019-06-08T10:26:30.974Z,95540.38
2019-06-08T10:29:00.276Z,95548.19
2019-06-08T10:31:35.539Z,95545.52
2019-06-08T10:33:49.135Z,95542.96
2019-06-08T10:36:15.116Z,95542.05
2019-06-08T10:38:41.402Z,95537.70
2019-06-08T10:41:15.709Z,95540.38
2019-06-08T10:43:33.233Z,95539.55
2019-06-08T10:46:02.862Z,95536.48
2019-06-08T10:48:27.528Z,95537.41
2019-06-08T10:50:51.273Z,95531.22
2019-06-08T10:53:17.270Z,95527.72
2019-06-08T10:55:43.291Z,95528.25
2019-06-08T10:58:11.282Z,95522.98
2019-06-08T11:00:35.297Z,95522.91
2019-06-08T11:03:03.242Z,95518.17
2019-06-08T11:05:28.042Z,95514.05
2019-06-08T11:07:53.368Z,95513.63
2019-06-08T11:10:19.474Z,95519.90
2019-06-08T11:12:45.434Z,95507.48
2019-06-08T11:15:11.915Z,95502.13
2019-06-08T11:17:37.896Z,95507.48
2019-06-08T11:20:04.788Z,95510.03
2019-06-08T11:22:29.585Z,95508.69
2019-06-08T11:24:55.643Z,95500.25
2019-06-08T11:27:21.638Z,95502.93
2019-06-08T11:29:47.778Z,95493.06
2019-06-08T11:32:13.713Z,95500.05
2019-06-08T11:34:39.712Z,95487.09
2019-06-08T11:37:09.397Z,95484.83
2019-06-08T11:39:31.776Z,95489.77
2019-06-08T11:41:58.808Z,95490.47
2019-06-08T11:44:23.803Z,95484.12
2019-06-08T11:46:49.912Z,95484.53
2019-06-08T11:49:18.613Z,95483.20
2019-06-08T11:51:41.916Z,95491.60
2019-06-08T11:54:25.534Z,95485.33
2019-06-08T11:56:33.935Z,95493.89
2019-06-08T11:59:01.070Z,95492.94
2019-06-08T12:01:27.672Z,95482.36
2019-06-08T12:03:52.007Z,95490.80
2019-06-08T12:06:18.482Z,95488.13
2019-06-08T12:08:43.978Z,95489.88
2019-06-08T12:11:16.308Z,95482.36
2019-06-08T12:13:36.006Z,95484.62
2019-06-08T12:16:03.066Z,95480.20
2019-06-08T12:18:28.075Z,95470.83
2019-06-08T12:20:54.087Z,95479.78
2019-06-08T12:23:20.100Z,95473.00
2019-06-08T12:25:46.110Z,95471.34
2019-06-08T12:28:12.599Z,95466.41
2019-06-08T12:30:38.465Z,95466.94
2019-06-08T12:33:04.888Z,95465.98
2019-06-08T12:35:30.141Z,95473.21
2019-06-08T12:37:58.086Z,95465.27
2019-06-08T12:40:22.174Z,95460.34
2019-06-08T12:42:48.174Z,95470.12
2019-06-08T12:45:15.161Z,95466.61
2019-06-08T12:47:40.289Z,95472.08
2019-06-08T12:50:08.925Z,95473.42
2019-06-08T12:52:32.476Z,95465.81
2019-06-08T12:55:06.032Z,95467.23
2019-06-08T12:57:24.488Z,95465.81
2019-06-08T12:59:50.485Z,95452.02
2019-06-08T13:02:22.027Z,95449.85
2019-06-08T13:04:42.500Z,95459.22
2019-06-08T13:07:10.115Z,95454.37
2019-06-08T13:09:34.543Z,95455.33
2019-06-08T13:12:00.573Z,95452.64
2019-06-08T13:14:28.417Z,95454.91
2019-06-08T13:16:53.198Z,95458.50
2019-06-08T13:19:18.618Z,95454.48
2019-06-08T13:21:44.618Z,95453.66
2019-06-08T13:24:11.357Z,95449.23
2019-06-08T13:26:36.676Z,95449.64
2019-06-08T13:29:02.704Z,95436.81
2019-06-08T13:31:29.017Z,95447.51
2019-06-08T13:33:54.720Z,95442.16
2019-06-08T13:36:25.865Z,95441.74
2019-06-08T13:38:48.022Z,95444.00
2019-06-08T13:41:12.982Z,95442.66
2019-06-08T13:43:40.557Z,95439.06
2019-06-08T13:46:04.871Z,95444.92
2019-06-08T13:48:30.878Z,95445.34
2019-06-08T13:50:59.030Z,95449.86
2019-06-08T13:53:27.298Z,95445.84
2019-06-08T13:55:56.109Z,95447.18
2019-06-08T13:58:15.271Z,95441.41
2019-06-08T14:00:41.281Z,95436.48
2019-06-08T14:03:08.470Z,95435.68
2019-06-08T14:05:33.286Z,95441.83
2019-06-08T14:07:59.319Z,95445.96
2019-06-08T14:10:25.694Z,95446.88
2019-06-08T14:12:51.341Z,95442.87
2019-06-08T14:15:17.455Z,95444.21
2019-06-08T14:17:43.374Z,95440.61
2019-06-08T14:20:09.384Z,95443.70
2019-06-08T14:22:35.387Z,95446.38
2019-06-08T14:25:01.820Z,95449.44
2019-06-08T14:27:32.879Z,95444.50
2019-06-08T14:29:54.892Z,95450.27
2019-06-08T14:32:22.363Z,95443.08
2019-06-08T14:34:50.214Z,95438.36
2019-06-08T14:37:15.053Z,95442.25
2019-06-08T14:39:41.688Z,95431.97
2019-06-08T14:42:24.902Z,95434.52
2019-06-08T14:44:44.723Z,95430.13
2019-06-08T14:47:10.832Z,95430.92
2019-06-08T14:49:38.436Z,95427.83
2019-06-08T14:52:02.858Z,95428.16
2019-06-08T14:54:33.315Z,95426.83
2019-06-08T14:56:54.920Z,95417.55
2019-06-08T14:59:22.039Z,95427.33
2019-06-08T15:01:48.730Z,95427.74
2019-06-08T15:04:13.007Z,95422.27
2019-06-08T15:06:39.014Z,95432.47
2019-06-08T15:09:05.057Z,95427.41
2019-06-08T15:11:34.761Z,95431.34
2019-06-08T15:13:58.505Z,95429.79
2019-06-08T15:16:23.628Z,95436.89
2019-06-08T15:18:49.074Z,95432.38
2019-06-08T15:21:15.071Z,95430.91
2019-06-08T15:23:41.242Z,95431.75
2019-06-08T15:26:20.516Z,95425.86
2019-06-08T15:28:35.871Z,95422.80
2019-06-08T15:31:00.067Z,95422.27
2019-06-08T15:33:26.969Z,95423.39
2019-06-08T15:35:51.410Z,95429.07
2019-06-08T15:38:17.511Z,95429.58
2019-06-08T15:40:43.494Z,95422.98
2019-06-08T15:43:09.528Z,95423.81
2019-06-08T15:45:35.538Z,95420.72
2019-06-08T15:48:01.558Z,95425.06
2019-06-08T15:53:40.378Z,95434.24
2019-06-08T15:56:09.359Z,95425.27
2019-06-08T15:58:55.045Z,95424.34
2019-06-08T16:01:23.329Z,95431.45
2019-06-08T16:03:49.324Z,95423.72
2019-06-08T16:09:18.624Z,95417.77
2019-06-08T16:11:44.655Z,95430.61
2019-06-08T16:14:12.796Z,95428.35
2019-06-08T16:17:04.837Z,95430.52
2019-06-08T16:22:22.854Z,95425.88
2019-06-08T16:24:49.566Z,95424.42
2019-06-08T16:27:20.765Z,95422.08
2019-06-08T16:29:47.463Z,95425.25
2019-06-08T16:32:35.399Z,95423.92
2019-06-08T16:37:42.538Z,95428.85
2019-06-08T16:40:15.724Z,95426.50
2019-06-08T16:42:42.402Z,95425.75
2019-06-08T16:45:10.098Z,95431.81
2019-06-08T16:47:37.631Z,95430.09
2019-06-08T16:50:06.710Z,95438.50
2019-06-08T16:52:36.895Z,95443.05
2019-06-08T16:55:13.745Z,95446.95
2019-06-08T16:57:41.308Z,95436.25
2019-06-08T17:00:30.313Z,95443.77
2019-06-08T17:02:52.420Z,95444.06
2019-06-08T17:05:35.572Z,95455.50
2019-06-08T17:10:50.555Z,95450.16
2019-06-08T17:13:19.735Z,95453.63
2019-06-08T17:15:52.935Z,95448.81
2019-06-08T17:18:21.314Z,95454.88
2019-06-08T17:20:49.479Z,95452.91
2019-06-08T17:23:15.925Z,95457.64
2019-06-08T17:25:42.700Z,95459.27
2019-06-08T17:28:11.643Z,95457.02
2019-06-08T17:30:37.668Z,95452.49
2019-06-08T17:33:14.322Z,95451.36
2019-06-08T17:35:40.391Z,95452.70
2019-06-08T17:38:06.327Z,95454.84
2019-06-08T17:40:33.841Z,95452.07
2019-06-08T17:42:58.495Z,95447.64
2019-06-08T17:45:27.027Z,95449.39
2019-06-08T17:47:53.050Z,95447.22
2019-06-08T17:50:19.052Z,95453.91
2019-06-08T17:52:46.027Z,95448.98
2019-06-08T17:55:13.785Z,95449.31
2019-06-08T17:57:48.279Z,95448.36
2019-06-08T18:00:12.288Z,95443.75
2019-06-08T18:02:42.045Z,95452.20
2019-06-08T18:05:10.278Z,95449.11
2019-06-08T18:07:44.292Z,95455.80
2019-06-08T18:10:09.505Z,95457.02
2019-06-08T18:12:40.717Z,95454.88
2019-06-08T18:15:07.678Z,95453.41
2019-06-08T18:17:33.969Z,95452.28
2019-06-08T18:19:58.815Z,95455.80
2019-06-08T18:22:27.033Z,95456.30
2019-06-08T18:24:51.100Z,95458.47
2019-06-08T18:27:18.066Z,95462.91
2019-06-08T18:29:44.394Z,95463.82
2019-06-08T18:32:09.152Z,95471.52
2019-06-08T18:34:37.373Z,95477.29
2019-06-08T18:37:01.421Z,95482.34
2019-06-08T18:39:27.442Z,95489.45
2019-06-08T18:41:53.456Z,95503.34
2019-06-08T18:44:19.461Z,95513.53
2019-06-08T18:46:45.514Z,95525.16
2019-06-08T18:49:11.539Z,95525.66
2019-06-08T18:51:38.221Z,95529.47
2019-06-08T18:54:11.420Z,95533.06
2019-06-08T18:56:30.572Z,95544.90
2019-06-08T18:58:58.317Z,95546.23
2019-06-08T19:01:23.738Z,95549.33
2019-06-08T19:03:52.260Z,95553.67
2019-06-08T19:06:14.668Z,95548.83
2019-06-08T19:08:43.198Z,95550.58
2019-06-08T19:11:08.424Z,95546.66
2019-06-08T19:13:32.914Z,95547.91
2019-06-08T19:15:59.855Z,95551.70
2019-06-08T19:18:27.221Z,95554.67
2019-06-08T19:20:53.515Z,95556.52
2019-06-08T19:23:20.725Z,95562.63
2019-06-08T19:25:46.736Z,95577.12
2019-06-08T19:28:09.504Z,95576.30
2019-06-08T19:30:37.900Z,95582.16
2019-06-08T19:33:01.516Z,95589.77
2019-06-08T19:35:27.553Z,95588.55
2019-06-08T19:37:54.029Z,95592.77
2019-06-08T19:40:19.540Z,95599.84
2019-06-08T19:42:55.034Z,95597.08
2019-06-08T19:45:11.585Z,95601.52
2019-06-08T19:47:38.419Z,95596.96
2019-06-08T19:50:03.599Z,95599.97
2019-06-08T19:52:29.595Z,95597.70
2019-06-08T19:54:57.922Z,95602.94
2019-06-08T19:57:21.610Z,95605.73
2019-06-08T19:59:47.677Z,95594.49
2019-06-08T20:02:13.672Z,95595.03
2019-06-08T20:04:40.646Z,95597.08
2019-06-08T20:07:08.451Z,95597.50
2019-06-08T20:09:31.703Z,95603.66
2019-06-08T20:12:00.037Z,95602.02
2019-06-08T20:14:23.742Z,95609.55
2019-06-08T20:16:50.889Z,95606.53
2019-06-08T20:19:17.594Z,95604.40
2019-06-08T20:21:42.824Z,95609.22
2019-06-08T20:24:10.495Z,95605.32
2019-06-08T20:26:33.762Z,95605.73
2019-06-08T20:29:12.269Z,95604.70
2019-06-08T20:31:27.355Z,95605.11
2019-06-08T20:33:52.218Z,95610.05
2019-06-08T20:36:17.896Z,95602.85
2019-06-08T20:38:44.738Z,95598.92
2019-06-08T20:41:09.922Z,95607.08
2019-06-08T20:43:38.150Z,95602.11
2019-06-08T20:46:02.296Z,95599.43
2019-06-08T20:48:28.404Z,95602.02
2019-06-08T20:50:54.398Z,95601.52
2019-06-08T20:53:20.416Z,95601.09
2019-06-08T20:55:48.205Z,95601.09
2019-06-08T20:58:12.423Z,95602.94
2019-06-08T21:00:38.423Z,95600.27
2019-06-08T21:03:04.412Z,95605.20
2019-06-08T21:05:30.435Z,95607.38
2019-06-08T21:07:58.851Z,95613.14
2019-06-08T21:10:24.477Z,95612.30
2019-06-08T21:12:50.855Z,95614.89
2019-06-08T21:15:14.448Z,95618.91
2019-06-08T21:17:40.441Z,95623.43
2019-06-08T21:20:08.489Z,95619.41
2019-06-08T21:22:32.470Z,95617.25
2019-06-08T21:25:00.035Z,95612.42
2019-06-08T21:27:24.516Z,95608.00
2019-06-08T21:29:59.124Z,95607.16
2019-06-08T21:32:17.705Z,95607.16
2019-06-08T21:34:42.550Z,95614.36
2019-06-08T21:37:09.159Z,95611.39
2019-06-08T21:39:36.681Z,95608.29
2019-06-08T21:42:02.990Z,95606.75
2019-06-08T21:44:27.855Z,95605.95
2019-06-08T21:46:53.397Z,95605.52
2019-06-08T21:49:18.580Z,95602.02
2019-06-08T21:51:46.945Z,95607.37
2019-06-08T21:54:10.654Z,95600.09
2019-06-08T21:56:37.059Z,95596.99
2019-06-08T21:59:02.737Z,95599.67
2019-06-08T22:01:28.734Z,95597.50
2019-06-08T22:03:55.934Z,95595.73
2019-06-08T22:06:20.746Z,95594.11
2019-06-08T22:08:48.130Z,95595.03
2019-06-08T22:11:12.757Z,95591.13
2019-06-08T22:13:38.804Z,95590.18
2019-06-08T22:16:07.738Z,95587.50
2019-06-08T22:18:30.792Z,95590.72
2019-06-08T22:20:59.440Z,95592.14
2019-06-08T22:23:22.799Z,95588.13
2019-06-08T22:25:48.813Z,95584.12
2019-06-08T22:28:14.808Z,95588.25
2019-06-08T22:30:43.123Z,95588.25
2019-06-08T22:33:06.820Z,95588.34
2019-06-08T22:35:32.862Z,95585.66
2019-06-08T22:38:00.779Z,95584.86
2019-06-08T22:40:24.853Z,95593.27
2019-06-08T22:42:50.867Z,95587.53
2019-06-08T22:45:17.652Z,95586.70
2019-06-08T22:47:42.877Z,95591.13
2019-06-08T22:50:08.889Z,95590.30
2019-06-08T22:52:37.311Z,95595.15
2019-06-08T22:55:05.287Z,95590.72
2019-06-08T22:57:27.819Z,95589.47
2019-06-08T22:59:54.258Z,95593.09
2019-06-08T23:02:18.912Z,95597.49
2019-06-08T23:04:44.898Z,95592.14
2019-06-08T23:07:25.491Z,95598.03
2019-06-08T23:09:37.391Z,95601.13
2019-06-08T23:12:04.719Z,95607.81
2019-06-08T23:14:28.931Z,95598.95
2019-06-08T23:16:54.955Z,95603.47
2019-06-08T23:19:20.967Z,95593.18
2019-06-08T23:21:47.504Z,95602.13
2019-06-08T23:24:12.977Z,95599.04
2019-06-08T23:26:38.976Z,95595.56
2019-06-08T23:29:07.227Z,95595.44
2019-06-08T23:31:30.998Z,95595.02
2019-06-08T23:33:59.709Z,95591.02
2019-06-08T23:36:46.023Z,95589.29
2019-06-08T23:38:49.024Z,95585.78
2019-06-08T23:41:17.550Z,95586.20
2019-06-08T23:43:41.043Z,95582.59
2019-06-08T23:46:08.152Z,95587.53
2019-06-08T23:48:33.050Z,95578.17
2019-06-08T23:51:00.452Z,95584.44
2019-06-08T23:53:27.397Z,95590.63
2019-06-08T23:55:51.083Z,95590.71
2019-06-08T23:58:17.693Z,95589.80
